Time;durP1;ratioP1;P1;durP2;ratioP2;P2;SDS_P1;SDS_P2;PMS_P1;PMS_P2;Temp;Humidity;BMP_temperature;BMP_pressure;BME280_temperature;BME280_humidity;BME280_pressure;Samples;Min_cycle;Max_cycle;Signal;HPM_P1;HPM_P2
2021/07/16 00:00:01;;;;;;;9.50;2.27;;;;;;;14.35;nan;96616.75;3573957;39;20556;-72
2021/07/16 00:02:29;;;;;;;7.80;2.30;;;;;;;14.28;nan;96614.75;3584162;39;20845;-71
2021/07/16 00:04:57;;;;;;;5.43;2.17;;;;;;;14.19;nan;96613.69;3578310;39;20457;-73
2021/07/16 00:07:25;;;;;;;16.33;2.47;;;;;;;14.14;nan;96615.91;3572005;40;20927;-73
2021/07/16 00:09:53;;;;;;;8.30;2.47;;;;;;;14.11;nan;96616.13;3566097;40;20970;-74
2021/07/16 00:12:21;;;;;;;7.33;2.40;;;;;;;14.08;nan;96603.25;3570748;40;20505;-73
2021/07/16 00:14:50;;;;;;;39.27;3.77;;;;;;;13.93;nan;96597.44;3570618;40;20473;-73
2021/07/16 00:17:18;;;;;;;14.50;2.97;;;;;;;13.90;nan;96602.94;3571795;40;20954;-72
2021/07/16 00:19:46;;;;;;;6.73;2.63;;;;;;;13.86;nan;96610.28;3569247;40;20900;-73
2021/07/16 00:22:14;;;;;;;5.90;2.70;;;;;;;13.64;nan;96609.41;3571813;40;20459;-74
2021/07/16 00:24:43;;;;;;;2.07;1.80;;;;;;;13.63;nan;96618.22;3566438;40;20462;-75
2021/07/16 00:27:10;;;;;;;2.17;1.77;;;;;;;13.68;nan;96623.16;3572594;40;20822;-72
2021/07/16 00:29:38;;;;;;;5.03;1.40;;;;;;;13.75;nan;96620.84;3561565;40;20542;-72
2021/07/16 00:32:08;;;;;;;3.83;1.97;;;;;;;13.61;nan;96625.41;3571915;40;20754;-74
2021/07/16 00:34:36;;;;;;;4.30;2.20;;;;;;;13.62;nan;96627.09;3570273;40;20570;-73
2021/07/16 00:37:05;;;;;;;40.30;3.90;;;;;;;13.61;nan;96629.84;3571395;40;20925;-72
2021/07/16 00:39:34;;;;;;;175.77;9.73;;;;;;;13.47;nan;96627.50;3564618;40;20455;-73
2021/07/16 00:42:03;;;;;;;9.50;3.60;;;;;;;13.54;nan;96631.28;3571634;40;20838;-72
2021/07/16 00:44:33;;;;;;;6.23;2.60;;;;;;;13.65;nan;96647.06;3570046;40;20505;-73
2021/07/16 00:47:01;;;;;;;10.43;3.03;;;;;;;13.58;nan;96645.88;3570660;40;20720;-73
2021/07/16 00:49:30;;;;;;;30.87;3.70;;;;;;;13.57;nan;96654.75;3571188;40;20542;-73
2021/07/16 00:51:59;;;;;;;56.97;5.00;;;;;;;13.50;nan;96651.75;3571599;40;20469;-72
2021/07/16 00:54:27;;;;;;;118.70;8.03;;;;;;;13.42;nan;96659.41;3570957;40;20799;-74
2021/07/16 00:56:55;;;;;;;360.40;16.53;;;;;;;13.20;nan;96663.69;3572573;40;20937;-74
2021/07/16 00:59:25;;;;;;;283.67;14.80;;;;;;;12.92;nan;96662.41;3569409;40;20535;-74
2021/07/16 01:01:55;;;;;;;267.87;12.73;;;;;;;12.98;nan;96668.97;3571337;40;20440;-73
2021/07/16 01:04:24;;;;;;;350.43;17.73;;;;;;;12.92;nan;96665.03;3573319;40;20824;-72
2021/07/16 01:06:54;;;;;;;118.97;8.00;;;;;;;13.10;nan;96667.19;3571713;40;20446;-74
2021/07/16 01:09:22;;;;;;;154.70;8.73;;;;;;;12.89;nan;96665.25;3570764;40;20444;-74
2021/07/16 01:11:50;;;;;;;169.93;9.30;;;;;;;12.86;nan;96668.13;3571762;40;20568;-73
2021/07/16 01:14:19;;;;;;;153.37;9.70;;;;;;;12.90;nan;96666.06;3570500;40;20503;-72
2021/07/16 01:16:47;;;;;;;107.70;7.70;;;;;;;12.99;nan;96670.63;3569751;40;20453;-73
2021/07/16 01:19:23;;;;;;;39.33;6.80;;;;;;;13.19;nan;96667.31;3572573;40;20449;-74
2021/07/16 01:21:55;;;;;;;45.77;6.30;;;;;;;13.32;nan;96669.81;3571898;40;20531;-73
2021/07/16 01:24:25;;;;;;;22.43;4.60;;;;;;;13.28;nan;96659.66;3570209;40;20460;-75
2021/07/16 01:26:53;;;;;;;11.40;3.57;;;;;;;13.37;nan;96664.22;3570482;40;20941;-73
2021/07/16 01:29:21;;;;;;;11.40;3.30;;;;;;;13.31;nan;96662.03;3570066;40;20530;-74
2021/07/16 01:31:49;;;;;;;16.77;3.57;;;;;;;13.33;nan;96666.25;3562628;40;20860;-74
2021/07/16 01:34:19;;;;;;;12.03;3.40;;;;;;;13.32;nan;96656.66;3571350;40;20834;-73
2021/07/16 01:36:47;;;;;;;9.70;3.10;;;;;;;13.31;nan;96662.91;3571620;40;20749;-73
2021/07/16 01:39:15;;;;;;;5.47;2.20;;;;;;;13.32;nan;96655.84;3569890;40;20788;-74
2021/07/16 01:41:44;;;;;;;3.10;2.17;;;;;;;13.31;nan;96659.41;3571193;40;20467;-74
2021/07/16 01:44:12;;;;;;;2.20;1.97;;;;;;;13.32;nan;96669.81;3571101;40;20934;-74
2021/07/16 01:46:40;;;;;;;3.33;2.13;;;;;;;13.26;nan;96660.59;3570774;40;20958;-74
2021/07/16 01:49:08;;;;;;;4.30;2.27;;;;;;;13.26;nan;96665.84;3564690;40;20457;-73
2021/07/16 01:51:36;;;;;;;4.17;2.27;;;;;;;13.18;nan;96654.28;3571291;40;20539;-73
2021/07/16 01:54:04;;;;;;;4.87;2.73;;;;;;;13.17;nan;96653.44;3570347;40;20445;-73
2021/07/16 01:56:32;;;;;;;3.60;2.60;;;;;;;13.21;nan;96660.13;3570030;40;20897;-73
2021/07/16 01:59:02;;;;;;;16.07;3.27;;;;;;;13.09;nan;96655.81;3562282;40;20771;-73
2021/07/16 02:01:30;;;;;;;6.30;2.30;;;;;;;13.02;nan;96654.63;3570168;40;20472;-74
2021/07/16 02:03:58;;;;;;;5.47;2.37;;;;;;;13.04;nan;96660.59;3574251;40;20497;-73
2021/07/16 02:06:26;;;;;;;21.27;3.63;;;;;;;13.08;nan;96664.66;3570060;40;20708;-73
2021/07/16 02:08:54;;;;;;;111.23;7.00;;;;;;;12.73;nan;96659.50;3571532;40;20452;-71
2021/07/16 02:11:22;;;;;;;12.57;3.10;;;;;;;12.88;nan;96662.72;3572171;40;20910;-72
2021/07/16 02:13:51;;;;;;;33.77;4.87;;;;;;;13.02;nan;96660.72;3562196;40;20577;-72
2021/07/16 02:16:20;;;;;;;143.00;8.60;;;;;;;13.05;nan;96662.25;3570084;40;20875;-71
2021/07/16 02:18:49;;;;;;;124.80;8.60;;;;;;;13.04;nan;96665.88;3569125;40;20436;-72
2021/07/16 02:21:18;;;;;;;158.00;9.30;;;;;;;12.95;nan;96669.19;3570964;40;20844;-73
2021/07/16 02:23:47;;;;;;;17.93;4.13;;;;;;;13.01;nan;96661.66;3565806;40;21056;-73
2021/07/16 02:26:15;;;;;;;56.10;4.87;;;;;;;13.06;nan;96667.41;3570315;40;20831;-72
2021/07/16 02:28:44;;;;;;;227.60;12.07;;;;;;;13.01;nan;96669.53;3570527;40;20573;-72
2021/07/16 02:31:13;;;;;;;107.60;5.93;;;;;;;12.87;nan;96656.66;3570717;40;20846;-72
2021/07/16 02:33:43;;;;;;;162.67;9.10;;;;;;;12.81;nan;96659.75;3562574;40;20877;-73
2021/07/16 02:36:11;;;;;;;151.97;9.07;;;;;;;12.54;nan;96660.06;3569418;40;20471;-74
2021/07/16 02:38:39;;;;;;;67.60;6.07;;;;;;;12.35;nan;96661.44;3570652;40;20943;-74
2021/07/16 02:41:07;;;;;;;130.20;8.47;;;;;;;12.34;nan;96662.38;3571251;40;20775;-71
2021/07/16 02:43:36;;;;;;;52.97;5.80;;;;;;;12.49;nan;96662.22;3572424;40;20775;-73
2021/07/16 02:46:04;;;;;;;24.37;4.60;;;;;;;12.61;nan;96659.47;3569932;40;20463;-71
2021/07/16 02:48:35;;;;;;;10.67;3.60;;;;;;;12.64;nan;96655.78;3569158;40;20911;-71
2021/07/16 02:51:05;;;;;;;22.37;3.40;;;;;;;12.65;nan;96668.78;3559825;40;20569;-71
2021/07/16 02:53:34;;;;;;;8.00;2.87;;;;;;;12.71;nan;96672.75;3571377;40;21131;-73
2021/07/16 02:56:01;;;;;;;5.73;2.90;;;;;;;12.73;nan;96676.09;3561279;40;20684;-71
2021/07/16 02:58:29;;;;;;;3.90;2.33;;;;;;;12.73;nan;96681.34;3572340;40;20534;-71
2021/07/16 03:00:57;;;;;;;18.67;4.37;;;;;;;12.80;nan;96676.44;3564604;40;20548;-73
2021/07/16 03:03:26;;;;;;;12.43;3.17;;;;;;;12.79;nan;96670.38;3570413;40;20460;-73
2021/07/16 03:05:54;;;;;;;45.43;5.00;;;;;;;12.63;nan;96672.50;3572064;40;20472;-72
2021/07/16 03:08:24;;;;;;;14.40;3.80;;;;;;;12.60;nan;96672.72;3572524;40;20765;-73
2021/07/16 03:10:52;;;;;;;10.17;2.63;;;;;;;12.60;nan;96660.44;3571371;40;20825;-73
2021/07/16 03:13:20;;;;;;;10.03;2.70;;;;;;;12.66;nan;96670.47;3561050;40;20881;-73
2021/07/16 03:15:48;;;;;;;4.70;2.53;;;;;;;12.70;nan;96668.47;3567802;40;20497;-73
2021/07/16 03:18:18;;;;;;;3.60;1.93;;;;;;;12.58;nan;96675.47;3570647;40;20750;-73
2021/07/16 03:20:47;;;;;;;2.17;1.97;;;;;;;12.61;nan;96672.63;3570349;40;20741;-72
2021/07/16 03:23:17;;;;;;;2.93;1.90;;;;;;;12.71;nan;96675.38;3573366;40;20943;-73
2021/07/16 03:25:46;;;;;;;2.70;2.13;;;;;;;12.67;nan;96681.81;3569748;40;20547;-72
2021/07/16 03:28:14;;;;;;;10.57;2.93;;;;;;;12.67;nan;96673.94;3570533;40;20445;-73
2021/07/16 03:30:43;;;;;;;4.10;2.30;;;;;;;12.68;nan;96680.84;3572515;40;20848;-73
2021/07/16 03:33:11;;;;;;;8.83;2.20;;;;;;;12.59;nan;96669.28;3571009;40;20440;-74
2021/07/16 03:35:39;;;;;;;4.13;2.70;;;;;;;12.55;nan;96670.44;3569288;40;20852;-74
2021/07/16 03:38:07;;;;;;;7.20;3.00;;;;;;;12.54;nan;96670.56;3571523;40;20476;-73
2021/07/16 03:40:34;;;;;;;4.07;2.23;;;;;;;12.59;nan;96677.16;3569231;40;20499;-74
2021/07/16 03:43:04;;;;;;;6.07;2.90;;;;;;;12.65;nan;96674.06;3570306;40;20903;-76
2021/07/16 03:45:34;;;;;;;3.30;2.67;;;;;;;12.70;nan;96678.97;3568874;40;20467;-72
2021/07/16 03:48:02;;;;;;;5.73;2.90;;;;;;;12.69;nan;96674.66;3564835;40;20958;-73
2021/07/16 03:50:30;;;;;;;3.73;2.10;;;;;;;12.68;nan;96672.97;3568694;40;20567;-72
2021/07/16 03:52:58;;;;;;;3.73;2.40;;;;;;;12.66;nan;96664.38;3559591;40;20974;-75
2021/07/16 03:55:26;;;;;;;3.73;2.10;;;;;;;12.68;nan;96670.34;3570040;40;20492;-74
2021/07/16 03:57:54;;;;;;;2.50;2.30;;;;;;;12.65;nan;96678.47;3571452;40;20442;-73
2021/07/16 04:00:27;;;;;;;2.30;2.10;;;;;;;12.67;nan;96681.81;3569796;40;20495;-73
2021/07/16 04:02:59;;;;;;;2.77;2.47;;;;;;;12.64;nan;96667.13;3570993;40;20549;-75
2021/07/16 04:05:27;;;;;;;10.70;2.80;;;;;;;12.86;nan;96684.72;3569142;40;20789;-74
2021/07/16 04:08:02;;;;;;;6.37;3.30;;;;;;;12.67;nan;96681.81;3572082;39;20460;-74
2021/07/16 04:10:31;;;;;;;7.83;4.87;;;;;;;12.96;nan;96686.66;3571082;40;20788;-73
2021/07/16 04:13:01;;;;;;;8.20;5.67;;;;;;;13.01;nan;96687.94;3571339;40;21135;-74
2021/07/16 04:15:31;;;;;;;10.63;5.80;;;;;;;13.04;nan;96692.97;3571285;40;20489;-73
2021/07/16 04:18:01;;;;;;;7.47;4.43;;;;;;;13.12;nan;96687.13;3569061;40;20733;-76
2021/07/16 04:20:30;;;;;;;17.13;6.80;;;;;;;13.22;nan;96682.81;3570331;40;20480;-74
2021/07/16 04:22:59;;;;;;;13.40;7.20;;;;;;;13.34;nan;96682.84;3571349;40;20464;-75
2021/07/16 04:25:27;;;;;;;10.33;5.80;;;;;;;13.39;nan;96685.97;3572497;40;20805;-73
2021/07/16 04:28:00;;;;;;;9.40;6.37;;;;;;;13.29;nan;96683.19;3570336;40;20482;-75
2021/07/16 04:30:31;;;;;;;11.40;6.50;;;;;;;13.00;nan;96683.66;3570461;40;20471;-75
2021/07/16 04:33:00;;;;;;;9.73;5.47;;;;;;;13.09;nan;96690.00;3570612;40;20461;-73
2021/07/16 04:35:30;;;;;;;11.50;6.73;;;;;;;13.12;nan;96694.19;3570928;40;20840;-76
2021/07/16 04:37:58;;;;;;;16.30;6.73;;;;;;;13.43;nan;96697.94;3563898;40;20474;-76
2021/07/16 04:40:27;;;;;;;12.00;6.63;;;;;;;13.51;nan;96687.63;3562012;40;20794;-75
2021/07/16 04:42:56;;;;;;;11.00;7.40;;;;;;;13.67;nan;96697.78;3568790;40;20499;-74
2021/07/16 04:45:25;;;;;;;16.77;7.10;;;;;;;13.77;nan;96696.06;3572406;40;20517;-75
2021/07/16 04:47:54;;;;;;;18.50;7.20;;;;;;;13.86;nan;96694.50;3572635;40;20461;-76
2021/07/16 04:50:22;;;;;;;16.10;8.00;;;;;;;13.91;nan;96692.31;3572066;40;20546;-75
2021/07/16 04:52:52;;;;;;;15.47;7.97;;;;;;;14.12;nan;96696.81;3572564;40;20524;-73
2021/07/16 04:55:21;;;;;;;14.13;9.00;;;;;;;14.21;nan;96693.41;3570996;40;20522;-74
2021/07/16 04:57:54;;;;;;;18.70;9.50;;;;;;;14.19;nan;96698.84;3576404;40;20495;-75
2021/07/16 05:00:23;;;;;;;22.10;9.10;;;;;;;14.19;nan;96690.94;3561481;40;20698;-74
2021/07/16 05:02:51;;;;;;;14.70;6.73;;;;;;;13.80;nan;96692.38;3563125;40;20458;-75
2021/07/16 05:05:20;;;;;;;12.40;6.13;;;;;;;13.94;nan;96699.16;3571410;40;20822;-72
2021/07/16 05:07:48;;;;;;;11.60;7.93;;;;;;;14.08;nan;96703.31;3573486;40;20898;-73
2021/07/16 05:10:16;;;;;;;15.07;6.77;;;;;;;14.29;nan;96708.59;3569320;40;20467;-72
2021/07/16 05:12:44;;;;;;;8.80;6.53;;;;;;;14.38;nan;96692.88;3572201;40;20869;-73
2021/07/16 05:15:13;;;;;;;11.20;6.80;;;;;;;14.33;nan;96705.59;3571465;40;20468;-73
2021/07/16 05:17:41;;;;;;;12.83;8.13;;;;;;;14.57;nan;96709.84;3574380;40;20468;-71
2021/07/16 05:20:10;;;;;;;47.70;27.87;;;;;;;14.75;nan;96707.47;3570845;40;20565;-72
2021/07/16 05:22:39;;;;;;;15.17;8.17;;;;;;;14.80;nan;96705.28;3573006;40;20530;-73
2021/07/16 05:25:09;;;;;;;12.80;8.90;;;;;;;14.97;nan;96717.84;3570899;40;20489;-71
2021/07/16 05:27:39;;;;;;;13.53;8.50;;;;;;;15.12;nan;96710.44;3562133;40;20915;-75
2021/07/16 05:30:08;;;;;;;10.50;7.83;;;;;;;15.17;nan;96721.47;3569344;40;20462;-73
2021/07/16 05:32:36;;;;;;;11.63;7.83;;;;;;;15.28;nan;96723.16;3571823;40;20519;-71
2021/07/16 05:35:05;;;;;;;10.07;7.80;;;;;;;15.36;nan;96730.41;3572758;40;20789;-73
2021/07/16 05:37:33;;;;;;;16.30;8.67;;;;;;;15.34;nan;96732.34;3570953;40;20806;-71
2021/07/16 05:40:03;;;;;;;15.47;8.87;;;;;;;15.41;nan;96731.69;3572469;40;20817;-70
2021/07/16 05:42:31;;;;;;;13.50;9.27;;;;;;;15.80;nan;96733.69;3570764;40;20773;-73
2021/07/16 05:44:59;;;;;;;11.90;9.50;;;;;;;15.91;nan;96743.28;3567042;39;20772;-73
2021/07/16 05:47:28;;;;;;;11.67;8.13;;;;;;;15.93;nan;96744.81;3583474;39;20552;-72
2021/07/16 05:49:56;;;;;;;17.20;9.80;;;;;;;16.14;nan;96736.81;3580029;39;20468;-73
2021/07/16 05:52:32;;;;;;;15.27;10.30;;;;;;;16.19;nan;96741.66;3571920;40;20549;-72
2021/07/16 05:55:02;;;;;;;18.60;9.40;;;;;;;16.11;nan;96745.03;3567245;40;20457;-72
2021/07/16 05:57:31;;;;;;;13.50;9.47;;;;;;;16.34;nan;96748.22;3560862;40;20883;-71
2021/07/16 05:59:59;;;;;;;16.03;9.23;;;;;;;16.28;nan;96747.94;3572286;40;20487;-71
2021/07/16 06:02:27;;;;;;;12.90;9.20;;;;;;;16.45;nan;96749.91;3562045;40;20791;-70
2021/07/16 06:04:55;;;;;;;27.60;13.67;;;;;;;16.30;nan;96749.47;3560775;40;20478;-73
2021/07/16 06:07:23;;;;;;;19.23;13.20;;;;;;;15.95;nan;96744.69;3571174;40;20443;-72
2021/07/16 06:09:51;;;;;;;16.00;9.60;;;;;;;15.61;nan;96748.44;3571663;40;20820;-73
2021/07/16 06:12:21;;;;;;;17.57;9.20;;;;;;;15.38;nan;96749.59;3573542;40;20569;-71
2021/07/16 06:14:54;;;;;;;22.47;10.37;;;;;;;15.12;nan;96755.28;3571280;40;20473;-74
2021/07/16 06:17:22;;;;;;;20.87;9.90;;;;;;;15.21;nan;96758.94;3570926;40;20926;-73
2021/07/16 06:19:50;;;;;;;17.23;9.87;;;;;;;15.43;nan;96760.59;3570314;40;21104;-72
2021/07/16 06:22:18;;;;;;;13.83;9.40;;;;;;;15.72;nan;96762.50;3571680;40;20749;-73
2021/07/16 06:24:46;;;;;;;18.53;10.47;;;;;;;15.66;nan;96768.31;3574445;40;20480;-71
2021/07/16 06:27:14;;;;;;;15.37;9.40;;;;;;;15.61;nan;96766.91;3572139;40;20449;-71
2021/07/16 06:29:43;;;;;;;14.07;9.17;;;;;;;16.08;nan;96769.06;3561557;40;20462;-72
2021/07/16 06:32:11;;;;;;;13.93;8.97;;;;;;;16.68;nan;96768.13;3568868;39;20426;-71
2021/07/16 06:34:40;;;;;;;16.40;9.67;;;;;;;16.58;nan;96770.78;3570928;40;20446;-72
2021/07/16 06:37:08;;;;;;;12.60;9.27;;;;;;;16.52;nan;96772.16;3574046;40;20491;-75
2021/07/16 06:39:36;;;;;;;15.53;10.10;;;;;;;16.78;nan;96775.09;3569875;40;20546;-74
2021/07/16 06:42:05;;;;;;;21.73;11.67;;;;;;;16.71;nan;96781.91;3572683;40;20841;-73
2021/07/16 06:44:34;;;;;;;17.17;11.70;;;;;;;17.00;nan;96773.16;3572847;40;20847;-72
2021/07/16 06:47:03;;;;;;;13.63;10.00;;;;;;;17.57;nan;96775.81;3559748;40;20977;-73
2021/07/16 06:49:31;;;;;;;50.03;33.63;;;;;;;17.62;nan;96780.66;3572651;40;21078;-75
2021/07/16 06:52:00;;;;;;;23.20;14.23;;;;;;;17.70;nan;96786.91;3570579;40;20858;-71
2021/07/16 06:54:29;;;;;;;15.10;10.33;;;;;;;17.92;nan;96790.22;3571680;40;20459;-73
2021/07/16 06:56:57;;;;;;;20.90;10.90;;;;;;;17.72;nan;96794.69;3573519;40;20437;-71
2021/07/16 06:59:25;;;;;;;18.43;9.83;;;;;;;17.67;nan;96789.84;3571629;40;20810;-71
2021/07/16 07:01:53;;;;;;;16.03;9.70;;;;;;;17.66;nan;96792.63;3570495;40;20492;-72
2021/07/16 07:04:23;;;;;;;18.10;10.23;;;;;;;17.31;nan;96794.97;3561070;40;21016;-72
2021/07/16 07:06:52;;;;;;;16.17;11.10;;;;;;;17.43;nan;96800.13;3571357;40;20627;-71
2021/07/16 07:09:20;;;;;;;16.90;11.50;;;;;;;17.27;nan;96803.31;3571594;40;20461;-72
2021/07/16 07:11:48;;;;;;;17.43;11.20;;;;;;;17.53;nan;96788.50;3576295;40;20438;-73
2021/07/16 07:14:16;;;;;;;21.43;10.40;;;;;;;17.91;nan;96791.19;3572387;40;20514;-72
2021/07/16 07:16:44;;;;;;;13.73;10.23;;;;;;;18.32;nan;96804.91;3566922;40;20698;-72
2021/07/16 07:19:12;;;;;;;14.10;9.90;;;;;;;18.61;nan;96802.06;3571541;40;20939;-75
2021/07/16 07:21:41;;;;;;;14.00;9.43;;;;;;;19.46;nan;96806.94;3571794;40;20477;-73
2021/07/16 07:24:09;;;;;;;10.60;8.07;;;;;;;19.73;nan;96806.78;3571611;40;21101;-71
2021/07/16 07:26:37;;;;;;;12.00;8.23;;;;;;;19.29;nan;96804.19;3573820;40;20474;-71
2021/07/16 07:29:05;;;;;;;11.93;8.00;;;;;;;19.19;nan;96819.38;3570696;40;20531;-74
2021/07/16 07:31:33;;;;;;;11.37;7.23;;;;;;;18.95;nan;96825.28;3571269;40;20470;-73
2021/07/16 07:34:02;;;;;;;12.40;8.80;;;;;;;18.31;nan;96835.88;3573773;40;20922;-74
2021/07/16 07:36:31;;;;;;;8.87;7.20;;;;;;;18.96;nan;96825.13;3571685;39;21092;-74
2021/07/16 07:39:00;;;;;;;9.53;6.47;;;;;;;19.06;nan;96830.38;3580428;39;20465;-72
2021/07/16 07:41:28;;;;;;;11.00;6.80;;;;;;;18.79;nan;96828.59;3583425;39;20836;-73
2021/07/16 07:43:57;;;;;;;7.63;6.10;;;;;;;18.67;nan;96827.97;3587570;39;20463;-73
2021/07/16 07:46:26;;;;;;;8.03;5.57;;;;;;;18.81;nan;96833.78;3582925;39;20910;-74
2021/07/16 07:48:54;;;;;;;7.87;6.10;;;;;;;18.75;nan;96835.19;3582983;39;20824;-75
2021/07/16 07:51:22;;;;;;;8.30;6.53;;;;;;;19.00;nan;96835.47;3582859;39;20774;-72
2021/07/16 07:53:50;;;;;;;10.97;6.70;;;;;;;18.68;nan;96842.94;3583816;39;20472;-72
2021/07/16 07:56:33;;;;;;;7.00;5.60;;;;;;;18.70;nan;96838.31;3577141;39;20460;-71
2021/07/16 07:59:02;;;;;;;7.40;5.70;;;;;;;19.17;nan;96832.78;3584031;39;20433;-74
2021/07/16 08:01:32;;;;;;;11.10;6.00;;;;;;;19.58;nan;96831.41;3587212;39;20697;-72
2021/07/16 08:04:01;;;;;;;9.10;5.63;;;;;;;20.02;nan;96826.06;3587009;39;20958;-71
2021/07/16 08:06:29;;;;;;;7.80;5.20;;;;;;;19.98;nan;96828.19;3583476;39;20753;-72
2021/07/16 08:08:57;;;;;;;12.43;8.17;;;;;;;19.54;nan;96813.16;3584245;39;20546;-73
2021/07/16 08:11:25;;;;;;;7.87;6.23;;;;;;;20.04;nan;96832.88;3583441;39;20890;-72
2021/07/16 08:13:55;;;;;;;7.27;5.60;;;;;;;20.20;nan;96842.75;3582726;39;20930;-73
2021/07/16 08:16:23;;;;;;;98.03;60.53;;;;;;;19.94;nan;96840.13;3582920;39;21094;-74
2021/07/16 08:18:51;;;;;;;9.77;7.80;;;;;;;19.59;nan;96841.06;3584263;39;20476;-71
2021/07/16 08:21:21;;;;;;;9.80;6.67;;;;;;;19.59;nan;96841.06;3583250;39;20763;-73
2021/07/16 08:23:49;;;;;;;11.10;6.63;;;;;;;19.46;nan;96829.00;3582756;39;20600;-71
2021/07/16 08:26:18;;;;;;;9.23;5.40;;;;;;;19.29;nan;96840.53;3576183;39;20481;-71
2021/07/16 08:28:50;;;;;;;9.80;7.70;;;;;;;19.53;nan;96837.19;3587166;39;20432;-71
2021/07/16 08:31:20;;;;;;;12.60;7.33;;;;;;;19.33;nan;96837.38;3585770;39;20479;-74
2021/07/16 08:33:48;;;;;;;9.73;7.23;;;;;;;19.59;nan;96846.38;3583974;39;20448;-72
2021/07/16 08:36:16;;;;;;;8.93;7.30;;;;;;;20.08;nan;96841.38;3583153;39;20457;-74
2021/07/16 08:38:46;;;;;;;10.40;6.83;;;;;;;19.81;nan;96845.88;3577523;39;20461;-72
2021/07/16 08:41:13;;;;;;;8.63;6.23;;;;;;;19.74;nan;96842.19;3583642;39;20451;-72
2021/07/16 08:43:43;;;;;;;9.77;5.80;;;;;;;20.76;nan;96844.94;3577174;39;20960;-73
2021/07/16 08:46:12;;;;;;;13.73;6.27;;;;;;;20.88;nan;96851.63;3573189;39;20893;-75
2021/07/16 08:48:42;;;;;;;8.93;6.03;;;;;;;21.37;nan;96850.81;3582359;39;20826;-72
2021/07/16 08:51:11;;;;;;;10.00;6.30;;;;;;;20.64;nan;96847.91;3579998;39;20837;-71
2021/07/16 08:53:39;;;;;;;6.93;5.23;;;;;;;20.88;nan;96852.44;3574648;39;20484;-75
2021/07/16 08:56:08;;;;;;;6.87;4.83;;;;;;;20.85;nan;96850.09;3564114;40;20458;-74
2021/07/16 08:58:36;;;;;;;9.93;5.33;;;;;;;21.70;nan;96851.66;3574645;40;20450;-73
2021/07/16 09:01:04;;;;;;;10.20;5.97;;;;;;;21.05;nan;96857.78;3568786;40;20464;-72
2021/07/16 09:03:32;;;;;;;8.37;5.43;;;;;;;20.76;nan;96855.56;3564179;40;20548;-72
2021/07/16 09:06:01;;;;;;;7.50;5.83;;;;;;;20.77;nan;96858.06;3571316;40;20466;-74
2021/07/16 09:08:29;;;;;;;10.47;5.20;;;;;;;21.10;nan;96856.28;3572315;40;20756;-72
2021/07/16 09:10:59;;;;;;;7.27;5.67;;;;;;;21.43;nan;96853.66;3571219;40;20846;-72
2021/07/16 09:13:29;;;;;;;7.10;4.93;;;;;;;21.50;nan;96851.16;3571749;40;20441;-72
2021/07/16 09:15:59;;;;;;;6.17;5.27;;;;;;;21.95;nan;96849.75;3564298;40;20454;-73
2021/07/16 09:18:30;;;;;;;7.17;4.80;;;;;;;21.93;nan;96851.75;3565789;40;20784;-72
2021/07/16 09:21:08;;;;;;;8.60;4.90;;;;;;;21.98;nan;96851.25;3570712;40;20947;-73
2021/07/16 09:23:38;;;;;;;6.70;4.30;;;;;;;21.23;nan;96854.97;3574150;40;20554;-72
2021/07/16 09:26:10;;;;;;;6.10;4.70;;;;;;;22.35;nan;96842.66;3560677;40;20890;-72
2021/07/16 09:28:39;;;;;;;7.33;4.20;;;;;;;22.44;nan;96851.44;3564887;40;20873;-73
2021/07/16 09:31:13;;;;;;;10.13;4.70;;;;;;;22.79;nan;96849.25;3571000;40;20569;-73
2021/07/16 09:33:47;;;;;;;4.03;3.63;;;;;;;23.10;nan;96847.41;3571738;40;20457;-72
2021/07/16 09:36:25;;;;;;;3.97;3.57;;;;;;;24.35;nan;96842.56;3571174;40;20847;-73
2021/07/16 09:38:54;;;;;;;6.27;4.70;;;;;;;23.94;nan;96840.34;3572376;40;20481;-73
2021/07/16 09:41:22;;;;;;;8.33;4.93;;;;;;;23.95;nan;96836.66;3571423;40;20487;-72
2021/07/16 09:43:59;;;;;;;5.43;4.57;;;;;;;23.40;nan;96838.66;3570870;40;20781;-73
2021/07/16 09:46:28;;;;;;;5.47;4.23;;;;;;;23.53;nan;96843.41;3572831;40;20469;-75
2021/07/16 09:49:12;;;;;;;8.87;4.07;;;;;;;22.90;nan;96839.00;3570458;40;20776;-72
2021/07/16 09:51:44;;;;;;;7.73;4.03;;;;;;;22.96;nan;96855.34;3581022;39;20856;-72
2021/07/16 09:54:14;;;;;;;6.90;3.40;;;;;;;22.49;nan;96857.09;3592245;39;20459;-73
2021/07/16 09:56:42;;;;;;;5.40;3.53;;;;;;;22.79;nan;96850.06;3592058;39;20535;-71
2021/07/16 09:59:13;;;;;;;4.30;2.73;;;;;;;22.92;nan;96852.19;3590832;39;20476;-72
2021/07/16 10:01:43;;;;;;;4.77;3.10;;;;;;;23.25;nan;96857.31;3591948;39;20881;-72
2021/07/16 10:04:16;;;;;;;3.77;2.67;;;;;;;24.46;nan;96850.09;3592312;39;20440;-73
2021/07/16 10:06:48;;;;;;;4.93;3.27;;;;;;;24.28;nan;96840.59;3591972;39;20670;-74
2021/07/16 10:09:16;;;;;;;2.73;2.40;;;;;;;24.65;nan;96852.19;3591398;39;20511;-75
2021/07/16 10:11:48;;;;;;;2.93;2.33;;;;;;;24.96;nan;96853.78;3592129;39;20437;-75
2021/07/16 10:14:17;;;;;;;3.93;2.67;;;;;;;25.63;nan;96844.53;3589037;39;20899;-75
2021/07/16 10:16:46;;;;;;;4.20;2.67;;;;;;;24.21;nan;96857.59;3594627;39;20823;-73
2021/07/16 10:19:16;;;;;;;4.37;3.60;;;;;;;23.97;nan;96851.50;3594801;39;20439;-73
2021/07/16 10:21:46;;;;;;;3.80;2.80;;;;;;;23.95;nan;96858.03;3593192;39;20822;-74
2021/07/16 10:24:18;;;;;;;5.33;2.30;;;;;;;23.52;nan;96869.25;3594103;39;20473;-73
2021/07/16 10:26:50;;;;;;;5.57;3.00;;;;;;;23.64;nan;96865.16;3590866;39;21058;-73
2021/07/16 10:29:38;;;;;;;3.93;2.40;;;;;;;23.40;nan;96862.69;3590808;39;20496;-74
2021/07/16 10:32:07;;;;;;;3.00;2.33;;;;;;;23.17;nan;96873.38;3592557;39;20882;-75
2021/07/16 10:34:39;;;;;;;4.63;3.30;;;;;;;22.76;nan;96873.63;3591810;39;20457;-73
2021/07/16 10:37:10;;;;;;;3.30;2.63;;;;;;;23.14;nan;96868.41;3591454;39;20450;-74
2021/07/16 10:39:44;;;;;;;2.43;2.23;;;;;;;24.20;nan;96870.13;3582725;39;20448;-74
2021/07/16 10:42:44;;;;;;;2.70;1.63;;;;;;;25.49;nan;96866.06;3594453;39;20556;-74
2021/07/16 10:45:13;;;;;;;3.97;1.77;;;;;;;25.39;nan;96869.91;3592929;39;20707;-75
2021/07/16 10:47:44;;;;;;;4.43;2.43;;;;;;;23.77;nan;96875.22;3593576;39;20722;-73
2021/07/16 10:50:14;;;;;;;3.33;2.30;;;;;;;24.58;nan;96870.06;3581861;39;20909;-74
2021/07/16 10:52:46;;;;;;;2.63;2.00;;;;;;;24.27;nan;96871.06;3592347;39;20560;-72
2021/07/16 10:55:18;;;;;;;2.20;2.00;;;;;;;25.11;nan;96869.81;3592150;39;21144;-73
2021/07/16 10:57:48;;;;;;;4.40;2.27;;;;;;;25.55;nan;96873.34;3591792;39;20748;-74
2021/07/16 11:00:49;;;;;;;5.47;2.37;;;;;;;25.94;nan;96880.06;3592202;39;20447;-73
2021/07/16 11:03:19;;;;;;;2.70;2.00;;;;;;;25.34;nan;96866.97;3594298;39;20887;-72
2021/07/16 11:05:54;;;;;;;2.83;2.40;;;;;;;26.15;nan;96873.78;3591876;39;20811;-74
2021/07/16 11:08:54;;;;;;;6.13;2.57;;;;;;;25.18;nan;96869.88;3592189;39;20844;-75
2021/07/16 11:11:34;;;;;;;1.70;1.60;;;;;;;24.31;nan;96865.34;3592231;39;20939;-74
2021/07/16 11:14:03;;;;;;;69.90;46.37;;;;;;;25.59;nan;96870.06;3590426;39;20836;-75
2021/07/16 11:16:47;;;;;;;16.83;14.30;;;;;;;25.22;nan;96872.00;3592038;39;20474;-75
2021/07/16 11:19:23;;;;;;;2.20;1.90;;;;;;;26.15;nan;96873.78;3592366;39;20470;-72
2021/07/16 11:22:02;;;;;;;1.43;1.33;;;;;;;26.11;nan;96862.63;3592318;39;20752;-73
2021/07/16 11:24:35;;;;;;;2.20;2.00;;;;;;;25.94;nan;96864.78;3591041;39;20917;-75
2021/07/16 11:27:07;;;;;;;1.87;1.70;;;;;;;26.04;nan;96857.22;3591029;39;20455;-72
2021/07/16 11:29:37;;;;;;;3.20;1.87;;;;;;;25.95;nan;96868.28;3592766;39;20900;-72
2021/07/16 11:32:08;;;;;;;1.63;1.37;;;;;;;25.90;nan;96862.69;3591234;39;20746;-73
2021/07/16 11:34:37;;;;;;;5.80;1.93;;;;;;;26.09;nan;96869.22;3593504;39;20452;-74
2021/07/16 11:37:06;;;;;;;4.67;1.73;;;;;;;25.81;nan;96873.53;3592065;39;21236;-72
2021/07/16 11:39:37;;;;;;;2.07;1.30;;;;;;;26.46;nan;96870.66;3593065;39;20552;-75
2021/07/16 11:42:07;;;;;;;1.50;1.40;;;;;;;25.55;nan;96862.63;3592764;39;20526;-73
2021/07/16 11:44:38;;;;;;;1.93;1.33;;;;;;;26.01;nan;96863.00;3594360;39;20807;-73
2021/07/16 11:47:17;;;;;;;3.37;1.53;;;;;;;27.11;nan;96864.91;3592692;39;20682;-74
2021/07/16 11:49:47;;;;;;;2.10;1.30;;;;;;;27.40;nan;96861.91;3589896;39;20548;-73
2021/07/16 11:52:17;;;;;;;1.13;1.03;;;;;;;27.89;nan;96854.44;3597667;39;21190;-74
2021/07/16 11:54:46;;;;;;;2.43;1.20;;;;;;;26.91;nan;96854.13;3593154;39;20487;-74